Time;durP1;ratioP1;P1;durP2;ratioP2;P2;SDS_P1;SDS_P2;PMS_P1;PMS_P2;Temp;Humidity;BMP_temperature;BMP_pressure;BME280_temperature;BME280_humidity;BME280_pressure;Samples;Min_cycle;Max_cycle;Signal;HPM_P1;HPM_P2
2024/01/28 00:00:03;;;;;;;;;;;;;;;;;;2075018;28;19913;-81
2024/01/28 00:01:24;;;;;;;;;;;;;;;;;;2068865;28;19932;-81
2024/01/28 00:02:45;;;;;;;;;;;;;;;;;;2079004;28;20356;-80
2024/01/28 00:04:05;;;;;;;;;;;;;;;;;;2074350;28;20093;-79
2024/01/28 00:05:26;;;;;;;;;;;;;;;;;;2081192;28;20327;-79
2024/01/28 00:06:47;;;;;;;;;;;;;;;;;;2082611;28;19917;-79
2024/01/28 00:08:08;;;;;;;;;;;;;;;;;;2081719;28;19910;-79
2024/01/28 00:09:28;;;;;;;;;;;;;;;;;;2080375;28;19910;-80
2024/01/28 00:10:49;;;;;;;;;;;;;;;;;;2077125;28;20385;-80
2024/01/28 00:12:13;;;;;;;;;;;;;;;;;;2085266;28;19940;-80
2024/01/28 00:13:34;;;;;;;;;;;;;;;;;;2081225;28;20214;-79
2024/01/28 00:14:55;;;;;;;;;;;;;;;;;;2080013;28;20256;-79
2024/01/28 00:16:15;;;;;;;;;;;;;;;;;;2070263;28;19926;-79
2024/01/28 00:17:36;;;;;;;;;;;;;;;;;;2085789;28;19913;-80
2024/01/28 00:19:00;;;;;;;;;;;;;;;;;;2074215;28;19909;-80
2024/01/28 00:20:21;;;;;;;;;;;;;;;;;;2075142;28;19917;-80
2024/01/28 00:21:41;;;;;;;;;;;;;;;;;;2073057;28;19914;-80
2024/01/28 00:23:02;;;;;;;;;;;;;;;;;;2071412;28;19921;-80
2024/01/28 00:24:23;;;;;;;;;;;;;;;;;;2078338;28;19909;-80
2024/01/28 00:25:44;;;;;;;;;;;;;;;;;;2082336;28;19909;-80
2024/01/28 00:27:05;;;;;;;;;;;;;;;;;;2080184;28;19917;-80
2024/01/28 00:28:26;;;;;;;;;;;;;;;;;;2080207;28;19944;-80
2024/01/28 00:29:46;;;;;;;;;;;;;;;;;;2069871;28;19914;-80
2024/01/28 00:31:07;;;;;;;;;;;;;;;;;;2078088;28;19909;-80
2024/01/28 00:32:28;;;;;;;;;;;;;;;;;;2073430;28;19926;-80
2024/01/28 00:33:48;;;;;;;;;;;;;;;;;;2070696;28;19971;-80
2024/01/28 00:35:09;;;;;;;;;;;;;;;;;;2070079;28;19914;-80
2024/01/28 00:36:30;;;;;;;;;;;;;;;;;;2077350;28;19913;-80
2024/01/28 00:37:54;;;;;;;;;;;;;;;;;;2071280;28;20361;-80
2024/01/28 00:39:15;;;;;;;;;;;;;;;;;;2076907;28;19928;-80
2024/01/28 00:40:36;;;;;;;;;;;;;;;;;;2077796;28;20373;-80
2024/01/28 00:41:56;;;;;;;;;;;;;;;;;;2077092;28;19933;-80
2024/01/28 00:43:17;;;;;;;;;;;;;;;;;;2075845;28;19947;-80
2024/01/28 00:44:38;;;;;;;;;;;;;;;;;;2086050;28;19916;-80
2024/01/28 00:45:58;;;;;;;;;;;;;;;;;;2078957;28;20387;-80
2024/01/28 00:47:19;;;;;;;;;;;;;;;;;;2077555;28;20332;-78
2024/01/28 00:48:40;;;;;;;;;;;;;;;;;;2084413;28;19913;-78
2024/01/28 00:50:00;;;;;;;;;;;;;;;;;;2080145;28;19920;-78
2024/01/28 00:51:21;;;;;;;;;;;;;;;;;;2075593;28;19913;-78
2024/01/28 00:52:43;;;;;;;;;;;;;;;;;;2084092;28;19928;-78
2024/01/28 00:54:04;;;;;;;;;;;;;;;;;;2076821;28;20384;-79
2024/01/28 00:55:25;;;;;;;;;;;;;;;;;;2076039;28;19921;-78
2024/01/28 00:56:46;;;;;;;;;;;;;;;;;;2069310;28;20338;-78
2024/01/28 00:58:08;;;;;;;;;;;;;;;;;;2084591;28;19924;-78
2024/01/28 00:59:29;;;;;;;;;;;;;;;;;;2089233;28;19916;-78
2024/01/28 01:00:50;;;;;;;;;;;;;;;;;;2088697;28;19916;-77
2024/01/28 01:02:10;;;;;;;;;;;;;;;;;;2081155;28;20329;-78
2024/01/28 01:03:31;;;;;;;;;;;;;;;;;;2082149;28;19932;-78
2024/01/28 01:04:52;;;;;;;;;;;;;;;;;;2074004;28;20288;-78
2024/01/28 01:06:12;;;;;;;;;;;;;;;;;;2081673;28;19921;-78
2024/01/28 01:07:33;;;;;;;;;;;;;;;;;;2085949;28;19966;-78
2024/01/28 01:08:54;;;;;;;;;;;;;;;;;;2083806;28;19913;-78
2024/01/28 01:10:14;;;;;;;;;;;;;;;;;;2075707;28;19921;-78
2024/01/28 01:11:35;;;;;;;;;;;;;;;;;;2072877;28;19914;-78
2024/01/28 01:12:56;;;;;;;;;;;;;;;;;;2083553;28;20306;-77
2024/01/28 01:14:16;;;;;;;;;;;;;;;;;;2079896;28;19921;-78
2024/01/28 01:15:37;;;;;;;;;;;;;;;;;;2076609;28;19921;-78
2024/01/28 01:16:58;;;;;;;;;;;;;;;;;;2076865;28;20399;-78
2024/01/28 01:18:19;;;;;;;;;;;;;;;;;;2083270;28;19916;-78
2024/01/28 01:19:39;;;;;;;;;;;;;;;;;;2079009;28;19909;-78
2024/01/28 01:21:00;;;;;;;;;;;;;;;;;;2080569;28;19971;-78
2024/01/28 01:22:21;;;;;;;;;;;;;;;;;;2079298;28;19909;-78
2024/01/28 01:23:41;;;;;;;;;;;;;;;;;;2071770;28;19913;-78
2024/01/28 01:25:02;;;;;;;;;;;;;;;;;;2073228;28;19913;-78
2024/01/28 01:26:23;;;;;;;;;;;;;;;;;;2069157;28;19909;-78
2024/01/28 01:27:48;;;;;;;;;;;;;;;;;;2070235;28;19917;-78
2024/01/28 01:29:09;;;;;;;;;;;;;;;;;;2070633;28;19933;-78
2024/01/28 01:30:30;;;;;;;;;;;;;;;;;;2070378;28;20416;-78
2024/01/28 01:31:50;;;;;;;;;;;;;;;;;;2070071;28;19925;-78
2024/01/28 01:33:11;;;;;;;;;;;;;;;;;;2070930;28;19910;-78
2024/01/28 01:34:32;;;;;;;;;;;;;;;;;;2075923;28;20281;-77
2024/01/28 01:35:52;;;;;;;;;;;;;;;;;;2086565;28;20297;-77
2024/01/28 01:37:13;;;;;;;;;;;;;;;;;;2079623;28;19925;-78
2024/01/28 01:38:34;;;;;;;;;;;;;;;;;;2078366;28;19983;-77
2024/01/28 01:39:54;;;;;;;;;;;;;;;;;;2077258;28;19918;-78
2024/01/28 01:41:15;;;;;;;;;;;;;;;;;;2073628;28;19913;-77
2024/01/28 01:42:36;;;;;;;;;;;;;;;;;;2078424;28;19913;-78
2024/01/28 01:43:59;;;;;;;;;;;;;;;;;;2087463;28;19927;-78
2024/01/28 01:45:19;;;;;;;;;;;;;;;;;;2081596;28;20350;-78
2024/01/28 01:46:40;;;;;;;;;;;;;;;;;;2078601;28;19913;-78
2024/01/28 01:48:01;;;;;;;;;;;;;;;;;;2080373;28;19928;-77
2024/01/28 01:49:22;;;;;;;;;;;;;;;;;;2080290;28;19909;-78
2024/01/28 01:50:43;;;;;;;;;;;;;;;;;;2086288;28;19920;-78
2024/01/28 01:52:03;;;;;;;;;;;;;;;;;;2078024;28;19913;-78
2024/01/28 01:53:24;;;;;;;;;;;;;;;;;;2083251;28;20431;-77
2024/01/28 01:54:47;;;;;;;;;;;;;;;;;;2079775;28;20380;-78
2024/01/28 01:56:08;;;;;;;;;;;;;;;;;;2074773;28;19921;-78
2024/01/28 01:57:28;;;;;;;;;;;;;;;;;;2081431;28;20420;-78
2024/01/28 01:58:49;;;;;;;;;;;;;;;;;;2090162;28;19913;-79
2024/01/28 02:00:14;;;;;;;;;;;;;;;;;;2082022;28;19909;-79
2024/01/28 02:01:35;;;;;;;;;;;;;;;;;;2075025;28;19917;-79
2024/01/28 02:02:55;;;;;;;;;;;;;;;;;;2077310;28;19921;-79
2024/01/28 02:04:16;;;;;;;;;;;;;;;;;;2074185;28;20392;-79
2024/01/28 02:05:37;;;;;;;;;;;;;;;;;;2074533;28;19960;-79
2024/01/28 02:06:57;;;;;;;;;;;;;;;;;;2070261;28;19914;-79
2024/01/28 02:08:18;;;;;;;;;;;;;;;;;;2074914;28;20284;-79
2024/01/28 02:09:39;;;;;;;;;;;;;;;;;;2079263;28;19989;-79
2024/01/28 02:11:02;;;;;;;;;;;;;;;;;;2079478;28;20380;-80
2024/01/28 02:12:23;;;;;;;;;;;;;;;;;;2079812;28;19913;-79
2024/01/28 02:13:43;;;;;;;;;;;;;;;;;;2083655;28;20283;-79
2024/01/28 02:15:04;;;;;;;;;;;;;;;;;;2082782;28;19909;-79
2024/01/28 02:16:25;;;;;;;;;;;;;;;;;;2070444;28;19910;-79
2024/01/28 02:17:46;;;;;;;;;;;;;;;;;;2072560;28;19921;-79
2024/01/28 02:19:07;;;;;;;;;;;;;;;;;;2080552;28;19917;-79
2024/01/28 02:20:27;;;;;;;;;;;;;;;;;;2078979;28;19913;-79
2024/01/28 02:21:48;;;;;;;;;;;;;;;;;;2081470;28;19913;-79
2024/01/28 02:23:09;;;;;;;;;;;;;;;;;;2085860;28;19913;-79
2024/01/28 02:24:29;;;;;;;;;;;;;;;;;;2078119;28;19913;-80
2024/01/28 02:25:50;;;;;;;;;;;;;;;;;;2080962;28;19929;-79
2024/01/28 02:27:11;;;;;;;;;;;;;;;;;;2081300;28;21152;-79
2024/01/28 02:28:32;;;;;;;;;;;;;;;;;;2081372;28;19912;-79
2024/01/28 02:29:52;;;;;;;;;;;;;;;;;;2076216;28;19937;-79
2024/01/28 02:31:13;;;;;;;;;;;;;;;;;;2077909;28;19909;-79
2024/01/28 02:32:34;;;;;;;;;;;;;;;;;;2079002;28;19913;-78
2024/01/28 02:33:54;;;;;;;;;;;;;;;;;;2079639;28;19909;-79
2024/01/28 02:35:15;;;;;;;;;;;;;;;;;;2087615;28;19909;-78
2024/01/28 02:36:36;;;;;;;;;;;;;;;;;;2080770;28;19913;-79
2024/01/28 02:37:56;;;;;;;;;;;;;;;;;;2079273;28;19933;-78
2024/01/28 02:39:17;;;;;;;;;;;;;;;;;;2077167;28;20279;-79
2024/01/28 02:40:38;;;;;;;;;;;;;;;;;;2077204;28;19922;-79
2024/01/28 02:41:59;;;;;;;;;;;;;;;;;;2086124;28;19920;-79
2024/01/28 02:43:20;;;;;;;;;;;;;;;;;;2089757;28;19916;-79
2024/01/28 02:44:40;;;;;;;;;;;;;;;;;;2077871;28;19979;-78
2024/01/28 02:46:01;;;;;;;;;;;;;;;;;;2081645;28;19913;-79
2024/01/28 02:47:22;;;;;;;;;;;;;;;;;;2077189;28;19924;-79
2024/01/28 02:48:43;;;;;;;;;;;;;;;;;;2073523;28;19910;-79
2024/01/28 02:50:03;;;;;;;;;;;;;;;;;;2073950;28;19913;-79
2024/01/28 02:51:24;;;;;;;;;;;;;;;;;;2073066;28;19910;-79
2024/01/28 02:52:45;;;;;;;;;;;;;;;;;;2080251;28;19920;-79
2024/01/28 02:54:05;;;;;;;;;;;;;;;;;;2081857;28;19979;-79
2024/01/28 02:55:26;;;;;;;;;;;;;;;;;;2076797;28;19917;-79
2024/01/28 02:56:47;;;;;;;;;;;;;;;;;;2078073;28;20357;-79
2024/01/28 02:58:08;;;;;;;;;;;;;;;;;;2073237;28;19978;-79
2024/01/28 02:59:29;;;;;;;;;;;;;;;;;;2074368;28;19920;-79
2024/01/28 03:00:49;;;;;;;;;;;;;;;;;;2075575;28;19913;-79
2024/01/28 03:02:10;;;;;;;;;;;;;;;;;;2083646;28;20018;-79
2024/01/28 03:03:31;;;;;;;;;;;;;;;;;;2081862;28;20317;-79
2024/01/28 03:04:51;;;;;;;;;;;;;;;;;;2076668;28;19921;-80
2024/01/28 03:06:12;;;;;;;;;;;;;;;;;;2083810;28;19913;-79
2024/01/28 03:07:33;;;;;;;;;;;;;;;;;;2084230;28;19917;-79
2024/01/28 03:08:53;;;;;;;;;;;;;;;;;;2078028;28;19920;-79
2024/01/28 03:10:14;;;;;;;;;;;;;;;;;;2071716;28;19929;-79
2024/01/28 03:11:35;;;;;;;;;;;;;;;;;;2077422;28;19917;-79
2024/01/28 03:12:56;;;;;;;;;;;;;;;;;;2077833;28;19917;-79
2024/01/28 03:14:16;;;;;;;;;;;;;;;;;;2080724;28;19917;-79
2024/01/28 03:15:37;;;;;;;;;;;;;;;;;;2076797;28;20306;-79
2024/01/28 03:16:58;;;;;;;;;;;;;;;;;;2081331;28;19950;-79
2024/01/28 03:18:19;;;;;;;;;;;;;;;;;;2083282;28;20388;-78
2024/01/28 03:19:40;;;;;;;;;;;;;;;;;;2087356;28;19916;-78
2024/01/28 03:21:01;;;;;;;;;;;;;;;;;;2085940;28;20049;-78
2024/01/28 03:22:21;;;;;;;;;;;;;;;;;;2080012;28;19913;-79
2024/01/28 03:23:42;;;;;;;;;;;;;;;;;;2073876;28;19913;-79
2024/01/28 03:25:03;;;;;;;;;;;;;;;;;;2079939;28;19920;-79
2024/01/28 03:26:23;;;;;;;;;;;;;;;;;;2083814;28;19912;-79
2024/01/28 03:27:44;;;;;;;;;;;;;;;;;;2077136;28;19918;-79
2024/01/28 03:29:05;;;;;;;;;;;;;;;;;;2072569;28;19918;-79
2024/01/28 03:30:26;;;;;;;;;;;;;;;;;;2081377;28;19928;-78
2024/01/28 03:31:47;;;;;;;;;;;;;;;;;;2073298;28;19921;-78
2024/01/28 03:33:08;;;;;;;;;;;;;;;;;;2072295;28;20324;-79
2024/01/28 03:34:28;;;;;;;;;;;;;;;;;;2069755;28;19914;-78
2024/01/28 03:35:49;;;;;;;;;;;;;;;;;;2081486;28;19975;-79
2024/01/28 03:37:10;;;;;;;;;;;;;;;;;;2084405;28;19978;-80
2024/01/28 03:38:30;;;;;;;;;;;;;;;;;;2074718;28;20046;-79
2024/01/28 03:39:51;;;;;;;;;;;;;;;;;;2073823;28;20381;-79
2024/01/28 03:41:12;;;;;;;;;;;;;;;;;;2076573;28;19917;-79
2024/01/28 03:42:32;;;;;;;;;;;;;;;;;;2079303;28;19913;-79
2024/01/28 03:43:53;;;;;;;;;;;;;;;;;;2074932;28;19913;-79
2024/01/28 03:45:14;;;;;;;;;;;;;;;;;;2075102;28;20342;-79
2024/01/28 03:46:37;;;;;;;;;;;;;;;;;;2084383;28;19916;-79
2024/01/28 03:47:58;;;;;;;;;;;;;;;;;;2088112;28;19916;-79
2024/01/28 03:49:19;;;;;;;;;;;;;;;;;;2073291;28;20432;-79
2024/01/28 03:50:40;;;;;;;;;;;;;;;;;;2084130;28;19913;-80
2024/01/28 03:52:00;;;;;;;;;;;;;;;;;;2073932;28;20400;-79
2024/01/28 03:53:21;;;;;;;;;;;;;;;;;;2082733;28;19975;-79
2024/01/28 03:54:42;;;;;;;;;;;;;;;;;;2079845;28;20541;-79
2024/01/28 03:56:03;;;;;;;;;;;;;;;;;;2074568;28;19929;-79
2024/01/28 03:57:23;;;;;;;;;;;;;;;;;;2079162;28;19936;-79
2024/01/28 03:58:44;;;;;;;;;;;;;;;;;;2081718;28;20323;-79
2024/01/28 04:00:06;;;;;;;;;;;;;;;;;;2075637;28;20385;-78
2024/01/28 04:01:27;;;;;;;;;;;;;;;;;;2079119;28;19924;-79
2024/01/28 04:02:47;;;;;;;;;;;;;;;;;;2085336;28;20433;-79
2024/01/28 04:04:08;;;;;;;;;;;;;;;;;;2075966;28;20403;-79
2024/01/28 04:05:29;;;;;;;;;;;;;;;;;;2081841;28;19913;-79
2024/01/28 04:06:49;;;;;;;;;;;;;;;;;;2073314;28;19913;-79
2024/01/28 04:08:10;;;;;;;;;;;;;;;;;;2072383;28;20036;-79
2024/01/28 04:09:32;;;;;;;;;;;;;;;;;;2084796;28;19921;-78
2024/01/28 04:10:53;;;;;;;;;;;;;;;;;;2076183;28;19936;-78
2024/01/28 04:12:14;;;;;;;;;;;;;;;;;;2072998;28;19914;-78
2024/01/28 04:13:34;;;;;;;;;;;;;;;;;;2074046;28;19917;-78
2024/01/28 04:14:55;;;;;;;;;;;;;;;;;;2080681;28;19928;-78
2024/01/28 04:16:16;;;;;;;;;;;;;;;;;;2074801;28;19914;-78
2024/01/28 04:17:36;;;;;;;;;;;;;;;;;;2070819;28;20285;-78
2024/01/28 04:18:57;;;;;;;;;;;;;;;;;;2077184;28;19921;-78
2024/01/28 04:20:18;;;;;;;;;;;;;;;;;;2079274;28;19913;-78
2024/01/28 04:21:40;;;;;;;;;;;;;;;;;;2072399;28;19957;-78
2024/01/28 04:23:01;;;;;;;;;;;;;;;;;;2074600;28;19925;-77
2024/01/28 04:24:22;;;;;;;;;;;;;;;;;;2080240;28;20257;-78
2024/01/28 04:25:43;;;;;;;;;;;;;;;;;;2076018;28;19922;-78
2024/01/28 04:27:04;;;;;;;;;;;;;;;;;;2081693;28;19913;-78
2024/01/28 04:28:25;;;;;;;;;;;;;;;;;;2077407;28;19921;-77
2024/01/28 04:29:46;;;;;;;;;;;;;;;;;;2071376;28;19913;-78
2024/01/28 04:31:07;;;;;;;;;;;;;;;;;;2077866;28;19924;-78
2024/01/28 04:32:28;;;;;;;;;;;;;;;;;;2086107;28;19920;-78
2024/01/28 04:33:49;;;;;;;;;;;;;;;;;;2076087;28;19920;-78
2024/01/28 04:35:09;;;;;;;;;;;;;;;;;;2081833;28;19913;-78
2024/01/28 04:36:31;;;;;;;;;;;;;;;;;;2084628;28;19928;-78
2024/01/28 04:37:52;;;;;;;;;;;;;;;;;;2074797;28;20424;-77
2024/01/28 04:39:12;;;;;;;;;;;;;;;;;;2072770;28;20024;-78
2024/01/28 04:40:33;;;;;;;;;;;;;;;;;;2083967;28;19959;-78
2024/01/28 04:41:54;;;;;;;;;;;;;;;;;;2075053;28;19924;-77
2024/01/28 04:43:15;;;;;;;;;;;;;;;;;;2079554;28;20328;-78
2024/01/28 04:44:36;;;;;;;;;;;;;;;;;;2073071;28;19913;-78
2024/01/28 04:45:57;;;;;;;;;;;;;;;;;;2071004;28;20794;-77
2024/01/28 04:47:18;;;;;;;;;;;;;;;;;;2082809;28;19955;-78
2024/01/28 04:48:38;;;;;;;;;;;;;;;;;;2076467;28;20380;-78
2024/01/28 04:49:59;;;;;;;;;;;;;;;;;;2080793;28;19913;-78
2024/01/28 04:51:20;;;;;;;;;;;;;;;;;;2072082;28;19917;-78
2024/01/28 04:52:41;;;;;;;;;;;;;;;;;;2071151;28;19964;-78
2024/01/28 04:54:01;;;;;;;;;;;;;;;;;;2081942;28;19936;-78
2024/01/28 04:55:22;;;;;;;;;;;;;;;;;;2083042;28;19924;-78
2024/01/28 04:56:44;;;;;;;;;;;;;;;;;;2075590;28;19913;-78
2024/01/28 04:58:05;;;;;;;;;;;;;;;;;;2074866;28;19925;-77
2024/01/28 04:59:25;;;;;;;;;;;;;;;;;;2074603;28;19925;-78
2024/01/28 05:00:46;;;;;;;;;;;;;;;;;;2074998;28;19920;-78
2024/01/28 05:02:07;;;;;;;;;;;;;;;;;;2071279;28;19921;-78
2024/01/28 05:03:27;;;;;;;;;;;;;;;;;;2082365;28;19982;-78
2024/01/28 05:04:48;;;;;;;;;;;;;;;;;;2083116;28;19929;-78
2024/01/28 05:06:09;;;;;;;;;;;;;;;;;;2076487;28;20365;-78
2024/01/28 05:07:30;;;;;;;;;;;;;;;;;;2073731;28;19913;-78
2024/01/28 05:08:51;;;;;;;;;;;;;;;;;;2077898;28;19944;-78
2024/01/28 05:10:12;;;;;;;;;;;;;;;;;;2076205;28;19913;-77
2024/01/28 05:11:33;;;;;;;;;;;;;;;;;;2083269;28;20428;-76
2024/01/28 05:12:54;;;;;;;;;;;;;;;;;;2082432;28;19967;-77
2024/01/28 05:14:14;;;;;;;;;;;;;;;;;;2076473;28;19948;-77
2024/01/28 05:15:35;;;;;;;;;;;;;;;;;;2073260;28;20365;-77
2024/01/28 05:16:58;;;;;;;;;;;;;;;;;;2080293;28;20146;-78
2024/01/28 05:18:19;;;;;;;;;;;;;;;;;;2074158;28;19925;-78
2024/01/28 05:19:40;;;;;;;;;;;;;;;;;;2080634;28;19932;-77
2024/01/28 05:21:00;;;;;;;;;;;;;;;;;;2073415;28;20403;-77
2024/01/28 05:22:22;;;;;;;;;;;;;;;;;;2072701;28;20008;-77
2024/01/28 05:23:43;;;;;;;;;;;;;;;;;;2078607;28;19914;-77
2024/01/28 05:25:03;;;;;;;;;;;;;;;;;;2074415;28;19913;-77
2024/01/28 05:26:24;;;;;;;;;;;;;;;;;;2075076;28;19913;-77
2024/01/28 05:27:45;;;;;;;;;;;;;;;;;;2071752;28;20415;-78
2024/01/28 05:29:05;;;;;;;;;;;;;;;;;;2074766;28;19921;-78
2024/01/28 05:30:27;;;;;;;;;;;;;;;;;;2080227;28;19921;-79
2024/01/28 05:31:48;;;;;;;;;;;;;;;;;;2084470;28;19913;-78
2024/01/28 05:33:09;;;;;;;;;;;;;;;;;;2074799;28;19913;-78
2024/01/28 05:34:30;;;;;;;;;;;;;;;;;;2080696;28;19963;-78
2024/01/28 05:35:50;;;;;;;;;;;;;;;;;;2075916;28;20338;-78
2024/01/28 05:37:14;;;;;;;;;;;;;;;;;;2072227;28;19921;-78
2024/01/28 05:38:35;;;;;;;;;;;;;;;;;;2075376;28;19944;-78
2024/01/28 05:39:56;;;;;;;;;;;;;;;;;;2081775;28;19912;-78
2024/01/28 05:41:16;;;;;;;;;;;;;;;;;;2076718;28;19930;-78
2024/01/28 05:42:37;;;;;;;;;;;;;;;;;;2071940;28;20012;-78
2024/01/28 05:43:58;;;;;;;;;;;;;;;;;;2080110;28;19921;-78
2024/01/28 05:45:19;;;;;;;;;;;;;;;;;;2077399;28;19914;-78
2024/01/28 05:46:39;;;;;;;;;;;;;;;;;;2074114;28;19913;-78
2024/01/28 05:48:01;;;;;;;;;;;;;;;;;;2075600;28;20498;-78
2024/01/28 05:49:22;;;;;;;;;;;;;;;;;;2073936;28;20381;-78
2024/01/28 05:50:43;;;;;;;;;;;;;;;;;;2075204;28;19967;-78
2024/01/28 05:52:03;;;;;;;;;;;;;;;;;;2071747;28;19913;-78
2024/01/28 05:53:24;;;;;;;;;;;;;;;;;;2073503;28;20141;-78
2024/01/28 05:54:45;;;;;;;;;;;;;;;;;;2084535;28;19917;-78
2024/01/28 05:56:06;;;;;;;;;;;;;;;;;;2078038;28;19928;-78
2024/01/28 05:57:26;;;;;;;;;;;;;;;;;;2069254;28;20370;-77
2024/01/28 05:58:47;;;;;;;;;;;;;;;;;;2072745;28;20036;-78
2024/01/28 06:00:08;;;;;;;;;;;;;;;;;;2074356;28;19918;-78
2024/01/28 06:01:29;;;;;;;;;;;;;;;;;;2080835;28;20082;-78
2024/01/28 06:02:50;;;;;;;;;;;;;;;;;;2076513;28;20365;-78
2024/01/28 06:04:10;;;;;;;;;;;;;;;;;;2069033;28;19913;-78
2024/01/28 06:05:31;;;;;;;;;;;;;;;;;;2076218;28;19917;-78
2024/01/28 06:06:52;;;;;;;;;;;;;;;;;;2074911;28;19943;-78
2024/01/28 06:08:13;;;;;;;;;;;;;;;;;;2068444;28;19913;-78
2024/01/28 06:09:34;;;;;;;;;;;;;;;;;;2077065;28;19983;-79
2024/01/28 06:10:55;;;;;;;;;;;;;;;;;;2081331;28;19921;-78
2024/01/28 06:12:16;;;;;;;;;;;;;;;;;;2076247;28;20122;-78
2024/01/28 06:13:37;;;;;;;;;;;;;;;;;;2082447;28;20058;-78
2024/01/28 06:15:02;;;;;;;;;;;;;;;;;;2078751;28;19922;-78
2024/01/28 06:16:22;;;;;;;;;;;;;;;;;;2076566;28;19921;-79
2024/01/28 06:17:43;;;;;;;;;;;;;;;;;;2078018;28;19929;-78
2024/01/28 06:19:04;;;;;;;;;;;;;;;;;;2076900;28;20206;-78
2024/01/28 06:20:25;;;;;;;;;;;;;;;;;;2075151;28;20326;-78
2024/01/28 06:21:46;;;;;;;;;;;;;;;;;;2077006;28;20027;-79
2024/01/28 06:23:07;;;;;;;;;;;;;;;;;;2077931;28;20394;-77
2024/01/28 06:24:28;;;;;;;;;;;;;;;;;;2082334;28;19917;-78
2024/01/28 06:25:49;;;;;;;;;;;;;;;;;;2073409;28;19913;-78
2024/01/28 06:27:09;;;;;;;;;;;;;;;;;;2079989;28;19913;-78
2024/01/28 06:28:31;;;;;;;;;;;;;;;;;;2082666;28;19917;-79
2024/01/28 06:29:52;;;;;;;;;;;;;;;;;;2078555;28;20288;-78
2024/01/28 06:31:13;;;;;;;;;;;;;;;;;;2079260;28;19909;-79
2024/01/28 06:32:33;;;;;;;;;;;;;;;;;;2073102;28;19914;-79
2024/01/28 06:33:54;;;;;;;;;;;;;;;;;;2080328;28;20357;-79
2024/01/28 06:35:15;;;;;;;;;;;;;;;;;;2081296;28;19921;-79
2024/01/28 06:36:35;;;;;;;;;;;;;;;;;;2076573;28;19913;-79
2024/01/28 06:37:56;;;;;;;;;;;;;;;;;;2083816;28;19936;-79
2024/01/28 06:39:17;;;;;;;;;;;;;;;;;;2087738;28;19951;-79
2024/01/28 06:40:37;;;;;;;;;;;;;;;;;;2078902;28;19917;-79
2024/01/28 06:41:58;;;;;;;;;;;;;;;;;;2078354;28;20301;-79
2024/01/28 06:43:19;;;;;;;;;;;;;;;;;;2078373;28;19995;-79
2024/01/28 06:44:40;;;;;;;;;;;;;;;;;;2087758;28;19909;-79
2024/01/28 06:46:01;;;;;;;;;;;;;;;;;;2082160;28;20400;-79
2024/01/28 06:47:21;;;;;;;;;;;;;;;;;;2072171;28;19939;-79
2024/01/28 06:48:42;;;;;;;;;;;;;;;;;;2086172;28;20434;-79
2024/01/28 06:50:03;;;;;;;;;;;;;;;;;;2082046;28;19917;-79
2024/01/28 06:51:23;;;;;;;;;;;;;;;;;;2085794;28;19920;-79
2024/01/28 06:52:44;;;;;;;;;;;;;;;;;;2082344;28;19909;-79
2024/01/28 06:54:05;;;;;;;;;;;;;;;;;;2080753;28;19921;-79
2024/01/28 06:55:26;;;;;;;;;;;;;;;;;;2081284;28;20312;-79
2024/01/28 06:56:47;;;;;;;;;;;;;;;;;;2073054;28;20133;-79
2024/01/28 06:58:07;;;;;;;;;;;;;;;;;;2070359;28;19913;-79
2024/01/28 06:59:28;;;;;;;;;;;;;;;;;;2069474;28;20344;-79
2024/01/28 07:00:49;;;;;;;;;;;;;;;;;;2085248;28;19935;-79
2024/01/28 07:02:09;;;;;;;;;;;;;;;;;;2088970;28;19919;-79
2024/01/28 07:03:30;;;;;;;;;;;;;;;;;;2078535;28;19913;-79
2024/01/28 07:04:51;;;;;;;;;;;;;;;;;;2072776;28;20294;-79
2024/01/28 07:06:14;;;;;;;;;;;;;;;;;;2074681;28;19928;-79
2024/01/28 07:07:34;;;;;;;;;;;;;;;;;;2077862;28;20308;-79
2024/01/28 07:08:57;;;;;;;;;;;;;;;;;;2075285;28;19925;-79
2024/01/28 07:10:17;;;;;;;;;;;;;;;;;;2073918;28;19925;-80
2024/01/28 07:11:38;;;;;;;;;;;;;;;;;;2078139;28;19917;-79
2024/01/28 07:12:59;;;;;;;;;;;;;;;;;;2076455;28;19925;-79
2024/01/28 07:14:19;;;;;;;;;;;;;;;;;;2078961;28;19917;-79
2024/01/28 07:15:40;;;;;;;;;;;;;;;;;;2085186;28;19933;-79
2024/01/28 07:17:01;;;;;;;;;;;;;;;;;;2083381;28;19913;-78
2024/01/28 07:18:22;;;;;;;;;;;;;;;;;;2075015;28;19913;-79
2024/01/28 07:19:42;;;;;;;;;;;;;;;;;;2071003;28;19929;-78
2024/01/28 07:21:04;;;;;;;;;;;;;;;;;;2076852;28;19929;-79
2024/01/28 07:22:24;;;;;;;;;;;;;;;;;;2074215;28;19913;-79
2024/01/28 07:23:45;;;;;;;;;;;;;;;;;;2078233;28;19913;-79
2024/01/28 07:25:06;;;;;;;;;;;;;;;;;;2074939;28;20254;-79
2024/01/28 07:26:26;;;;;;;;;;;;;;;;;;2081059;28;19939;-79
2024/01/28 07:27:47;;;;;;;;;;;;;;;;;;2082196;28;19952;-79
2024/01/28 07:29:08;;;;;;;;;;;;;;;;;;2077526;28;19921;-79
2024/01/28 07:30:28;;;;;;;;;;;;;;;;;;2072698;28;19921;-79
2024/01/28 07:31:51;;;;;;;;;;;;;;;;;;2077466;28;19989;-79
2024/01/28 07:33:13;;;;;;;;;;;;;;;;;;2078792;28;19917;-79
2024/01/28 07:34:33;;;;;;;;;;;;;;;;;;2077016;28;19921;-79
2024/01/28 07:35:54;;;;;;;;;;;;;;;;;;2076583;28;19917;-79
2024/01/28 07:37:15;;;;;;;;;;;;;;;;;;2075936;28;19913;-79
2024/01/28 07:38:35;;;;;;;;;;;;;;;;;;2080742;28;19916;-79
2024/01/28 07:39:56;;;;;;;;;;;;;;;;;;2078142;28;19917;-79
2024/01/28 07:41:17;;;;;;;;;;;;;;;;;;2080446;28;19920;-80
2024/01/28 07:42:38;;;;;;;;;;;;;;;;;;2077078;28;20443;-81
2024/01/28 07:43:58;;;;;;;;;;;;;;;;;;2083120;28;20288;-81
2024/01/28 07:45:19;;;;;;;;;;;;;;;;;;2074473;28;19913;-81
2024/01/28 07:46:40;;;;;;;;;;;;;;;;;;2076308;28;19944;-81
2024/01/28 07:48:01;;;;;;;;;;;;;;;;;;2075713;28;20361;-81
2024/01/28 07:49:21;;;;;;;;;;;;;;;;;;2082572;28;19942;-80
2024/01/28 07:50:42;;;;;;;;;;;;;;;;;;2078080;28;20293;-81
2024/01/28 07:52:03;;;;;;;;;;;;;;;;;;2072976;28;19991;-81
2024/01/28 07:53:23;;;;;;;;;;;;;;;;;;2073332;28;19980;-81
2024/01/28 07:54:44;;;;;;;;;;;;;;;;;;2084503;28;19943;-80
2024/01/28 07:56:05;;;;;;;;;;;;;;;;;;2075039;28;19921;-81
2024/01/28 07:57:25;;;;;;;;;;;;;;;;;;2073567;28;19917;-82
2024/01/28 07:58:46;;;;;;;;;;;;;;;;;;2075571;28;19918;-82
2024/01/28 08:00:09;;;;;;;;;;;;;;;;;;2079192;28;19967;-81
2024/01/28 08:01:32;;;;;;;;;;;;;;;;;;2083638;28;19913;-81
2024/01/28 08:02:53;;;;;;;;;;;;;;;;;;2077071;28;19913;-80
2024/01/28 08:04:13;;;;;;;;;;;;;;;;;;2075231;28;19917;-81
2024/01/28 08:05:34;;;;;;;;;;;;;;;;;;2081435;28;19913;-80
2024/01/28 08:06:55;;;;;;;;;;;;;;;;;;2075906;28;20250;-81
2024/01/28 08:08:15;;;;;;;;;;;;;;;;;;2086508;28;20016;-80
2024/01/28 08:09:37;;;;;;;;;;;;;;;;;;2087574;28;19921;-80
2024/01/28 08:10:58;;;;;;;;;;;;;;;;;;2085402;28;19917;-82
2024/01/28 08:12:19;;;;;;;;;;;;;;;;;;2076163;28;20300;-80
2024/01/28 08:13:39;;;;;;;;;;;;;;;;;;2074863;28;20029;-80
2024/01/28 08:15:00;;;;;;;;;;;;;;;;;;2073112;28;19913;-80
2024/01/28 08:16:21;;;;;;;;;;;;;;;;;;2078037;28;19928;-81
2024/01/28 08:17:41;;;;;;;;;;;;;;;;;;2082462;28;19913;-81
2024/01/28 08:19:04;;;;;;;;;;;;;;;;;;2077160;28;19917;-82
2024/01/28 08:20:25;;;;;;;;;;;;;;;;;;2085499;28;19932;-79
2024/01/28 08:21:46;;;;;;;;;;;;;;;;;;2077307;28;19913;-81
2024/01/28 08:23:07;;;;;;;;;;;;;;;;;;2083246;28;19912;-80
2024/01/28 08:24:27;;;;;;;;;;;;;;;;;;2079438;28;19913;-81
2024/01/28 08:25:48;;;;;;;;;;;;;;;;;;2070536;28;20301;-81
2024/01/28 08:27:09;;;;;;;;;;;;;;;;;;2072234;28;19975;-81
2024/01/28 08:28:29;;;;;;;;;;;;;;;;;;2083043;28;19920;-81
2024/01/28 08:29:50;;;;;;;;;;;;;;;;;;2083529;28;20264;-80
2024/01/28 08:31:12;;;;;;;;;;;;;;;;;;2076918;28;19924;-81
2024/01/28 08:32:32;;;;;;;;;;;;;;;;;;2068962;28;19914;-80
2024/01/28 08:33:53;;;;;;;;;;;;;;;;;;2075940;28;20373;-80
2024/01/28 08:35:14;;;;;;;;;;;;;;;;;;2084474;28;19916;-80
2024/01/28 08:36:34;;;;;;;;;;;;;;;;;;2076058;28;19917;-80
2024/01/28 08:37:55;;;;;;;;;;;;;;;;;;2077608;28;20353;-80
2024/01/28 08:39:16;;;;;;;;;;;;;;;;;;2077445;28;20245;-80
2024/01/28 08:40:38;;;;;;;;;;;;;;;;;;2069770;28;19913;-80
2024/01/28 08:41:59;;;;;;;;;;;;;;;;;;2072168;28;19914;-81
2024/01/28 08:43:20;;;;;;;;;;;;;;;;;;2084473;28;19924;-81
2024/01/28 08:44:40;;;;;;;;;;;;;;;;;;2077089;28;19917;-81
2024/01/28 08:46:03;;;;;;;;;;;;;;;;;;2072264;28;19955;-80
2024/01/28 08:47:23;;;;;;;;;;;;;;;;;;2071912;28;20328;-81
2024/01/28 08:48:44;;;;;;;;;;;;;;;;;;2075527;28;19916;-80
2024/01/28 08:50:05;;;;;;;;;;;;;;;;;;2068945;28;19980;-81
2024/01/28 08:51:25;;;;;;;;;;;;;;;;;;2079991;28;20292;-80
2024/01/28 08:52:46;;;;;;;;;;;;;;;;;;2085861;28;19912;-82
2024/01/28 08:54:07;;;;;;;;;;;;;;;;;;2076528;28;20397;-81
2024/01/28 08:55:27;;;;;;;;;;;;;;;;;;2072159;28;19909;-82
2024/01/28 08:56:48;;;;;;;;;;;;;;;;;;2072062;28;19997;-82
2024/01/28 08:58:09;;;;;;;;;;;;;;;;;;2077846;28;19920;-82
2024/01/28 08:59:30;;;;;;;;;;;;;;;;;;2070911;28;19921;-83
2024/01/28 09:00:51;;;;;;;;;;;;;;;;;;2074530;28;19917;-83
2024/01/28 09:02:11;;;;;;;;;;;;;;;;;;2080081;28;19909;-81
2024/01/28 09:03:32;;;;;;;;;;;;;;;;;;2085205;28;20292;-82
2024/01/28 09:04:53;;;;;;;;;;;;;;;;;;2088293;28;19920;-81
2024/01/28 09:06:13;;;;;;;;;;;;;;;;;;2078435;28;20301;-81
2024/01/28 09:07:34;;;;;;;;;;;;;;;;;;2073652;28;20203;-81
2024/01/28 09:08:55;;;;;;;;;;;;;;;;;;2076747;28;19921;-83
2024/01/28 09:10:15;;;;;;;;;;;;;;;;;;2083711;28;20620;-80
2024/01/28 09:11:36;;;;;;;;;;;;;;;;;;2088438;28;19931;-81